sensor_id;sensor_type;location;lat;lon;timestamp;pressure;altitude;pressure_sealevel;temperature;humidity
37824;BME280;23667;43.246;26.576;2022-09-21T00:00:37;99484.59;;;9.96;100.00
37824;BME280;23667;43.246;26.576;2022-09-21T00:03:03;99488.28;;;9.89;100.00
37824;BME280;23667;43.246;26.576;2022-09-21T00:05:28;99487.41;;;9.89;100.00
37824;BME280;23667;43.246;26.576;2022-09-21T00:07:54;99492.63;;;9.89;100.00
37824;BME280;23667;43.246;26.576;2022-09-21T00:10:20;99486.97;;;9.73;100.00
37824;BME280;23667;43.246;26.576;2022-09-21T00:12:46;99490.53;;;9.70;100.00
37824;BME280;23667;43.246;26.576;2022-09-21T00:15:13;99499.44;;;9.60;100.00
37824;BME280;23667;43.246;26.576;2022-09-21T00:17:40;99502.31;;;9.49;100.00
37824;BME280;23667;43.246;26.576;2022-09-21T00:20:06;99504.47;;;9.33;100.00
37824;BME280;23667;43.246;26.576;2022-09-21T00:22:32;99507.06;;;9.33;100.00
37824;BME280;23667;43.246;26.576;2022-09-21T00:24:57;99496.25;;;9.50;100.00
37824;BME280;23667;43.246;26.576;2022-09-21T00:27:23;99500.44;;;9.56;100.00
37824;BME280;23667;43.246;26.576;2022-09-21T00:29:58;99494.25;;;9.60;100.00
37824;BME280;23667;43.246;26.576;2022-09-21T00:32:25;99489.94;;;9.59;100.00
37824;BME280;23667;43.246;26.576;2022-09-21T00:34:51;99484.75;;;9.59;100.00
37824;BME280;23667;43.246;26.576;2022-09-21T00:37:20;99493.34;;;9.61;100.00
37824;BME280;23667;43.246;26.576;2022-09-21T00:39:45;99492.50;;;9.93;100.00
37824;BME280;23667;43.246;26.576;2022-09-21T00:42:23;99494.31;;;9.91;100.00
37824;BME280;23667;43.246;26.576;2022-09-21T00:44:49;99494.00;;;9.69;100.00
37824;BME280;23667;43.246;26.576;2022-09-21T00:47:34;99494.25;;;9.60;100.00
37824;BME280;23667;43.246;26.576;2022-09-21T00:50:04;99482.91;;;9.63;100.00
37824;BME280;23667;43.246;26.576;2022-09-21T00:52:33;99482.91;;;9.63;100.00
37824;BME280;23667;43.246;26.576;2022-09-21T00:55:09;99481.38;;;9.54;100.00
37824;BME280;23667;43.246;26.576;2022-09-21T00:57:36;99492.78;;;9.50;100.00
37824;BME280;23667;43.246;26.576;2022-09-21T01:00:06;99471.63;;;9.62;100.00
37824;BME280;23667;43.246;26.576;2022-09-21T01:02:33;99480.47;;;9.55;100.00
37824;BME280;23667;43.246;26.576;2022-09-21T01:04:59;99487.59;;;9.48;100.00
37824;BME280;23667;43.246;26.576;2022-09-21T01:07:28;99491.13;;;9.46;100.00
37824;BME280;23667;43.246;26.576;2022-09-21T01:10:00;99496.31;;;9.47;100.00
37824;BME280;23667;43.246;26.576;2022-09-21T01:12:42;99497.25;;;9.45;100.00
37824;BME280;23667;43.246;26.576;2022-09-21T01:21:18;99480.22;;;9.31;100.00
37824;BME280;23667;43.246;26.576;2022-09-21T01:34:34;99472.47;;;8.93;100.00
37824;BME280;23667;43.246;26.576;2022-09-21T01:37:06;99471.00;;;8.82;100.00
37824;BME280;23667;43.246;26.576;2022-09-21T01:39:35;99472.84;;;9.15;100.00
37824;BME280;23667;43.246;26.576;2022-09-21T01:42:04;99468.88;;;9.00;100.00
37824;BME280;23667;43.246;26.576;2022-09-21T01:44:33;99465.88;;;8.79;100.00
37824;BME280;23667;43.246;26.576;2022-09-21T01:47:01;99476.28;;;8.79;100.00
37824;BME280;23667;43.246;26.576;2022-09-21T01:49:35;99463.28;;;8.79;100.00
37824;BME280;23667;43.246;26.576;2022-09-21T01:52:12;99466.94;;;8.71;100.00
37824;BME280;23667;43.246;26.576;2022-09-21T01:54:48;99465.72;;;8.85;100.00
37824;BME280;23667;43.246;26.576;2022-09-21T01:57:36;99468.47;;;8.79;100.00
37824;BME280;23667;43.246;26.576;2022-09-21T02:00:05;99471.50;;;8.61;100.00
37824;BME280;23667;43.246;26.576;2022-09-21T02:02:38;99474.06;;;8.62;100.00
37824;BME280;23667;43.246;26.576;2022-09-21T02:05:05;99474.69;;;8.72;100.00
37824;BME280;23667;43.246;26.576;2022-09-21T02:07:32;99478.16;;;8.73;100.00
37824;BME280;23667;43.246;26.576;2022-09-21T02:09:59;99477.44;;;8.66;100.00
37824;BME280;23667;43.246;26.576;2022-09-21T02:12:26;99475.81;;;8.62;100.00
37824;BME280;23667;43.246;26.576;2022-09-21T02:14:52;99481.81;;;8.64;100.00
37824;BME280;23667;43.246;26.576;2022-09-21T02:26:04;99497.50;;;8.59;100.00
37824;BME280;23667;43.246;26.576;2022-09-21T02:31:23;99503.34;;;8.71;100.00
37824;BME280;23667;43.246;26.576;2022-09-21T02:33:59;99503.13;;;8.80;100.00
37824;BME280;23667;43.246;26.576;2022-09-21T02:36:38;99499.69;;;8.79;100.00
37824;BME280;23667;43.246;26.576;2022-09-21T02:42:22;99495.34;;;8.78;100.00
37824;BME280;23667;43.246;26.576;2022-09-21T02:45:13;99501.72;;;8.65;100.00
37824;BME280;23667;43.246;26.576;2022-09-21T02:48:19;99508.75;;;8.61;100.00
37824;BME280;23667;43.246;26.576;2022-09-21T02:50:50;99507.00;;;8.60;100.00
37824;BME280;23667;43.246;26.576;2022-09-21T02:53:24;99520.81;;;8.64;100.00
37824;BME280;23667;43.246;26.576;2022-09-21T02:55:51;99505.16;;;8.65;100.00
37824;BME280;23667;43.246;26.576;2022-09-21T02:58:19;99504.72;;;8.47;100.00
37824;BME280;23667;43.246;26.576;2022-09-21T03:00:46;99501.34;;;8.41;100.00
37824;BME280;23667;43.246;26.576;2022-09-21T03:03:16;99501.28;;;8.46;100.00
37824;BME280;23667;43.246;26.576;2022-09-21T03:05:43;99510.91;;;8.39;100.00
37824;BME280;23667;43.246;26.576;2022-09-21T03:08:10;99512.53;;;8.47;100.00
37824;BME280;23667;43.246;26.576;2022-09-21T03:10:35;99516.88;;;8.45;100.00
37824;BME280;23667;43.246;26.576;2022-09-21T03:13:05;99525.31;;;8.56;100.00
37824;BME280;23667;43.246;26.576;2022-09-21T03:15:36;99521.03;;;8.53;100.00
37824;BME280;23667;43.246;26.576;2022-09-21T03:18:06;99524.53;;;8.52;100.00
37824;BME280;23667;43.246;26.576;2022-09-21T03:20:34;99525.06;;;8.68;100.00
37824;BME280;23667;43.246;26.576;2022-09-21T03:23:01;99525.34;;;8.93;100.00
37824;BME280;23667;43.246;26.576;2022-09-21T03:25:28;99514.53;;;9.11;100.00
37824;BME280;23667;43.246;26.576;2022-09-21T03:27:54;99519.91;;;9.05;100.00
37824;BME280;23667;43.246;26.576;2022-09-21T03:30:24;99519.91;;;9.04;100.00
37824;BME280;23667;43.246;26.576;2022-09-21T03:32:51;99524.50;;;8.93;100.00
37824;BME280;23667;43.246;26.576;2022-09-21T03:35:18;99529.19;;;8.77;100.00
37824;BME280;23667;43.246;26.576;2022-09-21T03:37:44;99531.94;;;8.69;100.00
37824;BME280;23667;43.246;26.576;2022-09-21T03:40:13;99538.88;;;8.70;100.00
37824;BME280;23667;43.246;26.576;2022-09-21T03:42:39;99541.69;;;8.61;100.00
37824;BME280;23667;43.246;26.576;2022-09-21T03:45:05;99536.44;;;9.01;100.00
37824;BME280;23667;43.246;26.576;2022-09-21T03:47:31;99542.25;;;9.14;100.00
37824;BME280;23667;43.246;26.576;2022-09-21T03:49:57;99539.97;;;8.99;100.00
37824;BME280;23667;43.246;26.576;2022-09-21T03:52:22;99545.69;;;8.76;100.00
37824;BME280;23667;43.246;26.576;2022-09-21T03:54:48;99547.28;;;8.81;100.00
37824;BME280;23667;43.246;26.576;2022-09-21T03:57:13;99546.56;;;8.76;100.00
37824;BME280;23667;43.246;26.576;2022-09-21T03:59:39;99542.63;;;8.57;100.00
37824;BME280;23667;43.246;26.576;2022-09-21T04:02:04;99547.59;;;8.68;100.00
37824;BME280;23667;43.246;26.576;2022-09-21T04:04:30;99547.94;;;8.51;100.00
37824;BME280;23667;43.246;26.576;2022-09-21T04:06:58;99550.75;;;8.40;100.00
37824;BME280;23667;43.246;26.576;2022-09-21T04:09:24;99560.16;;;8.46;100.00
37824;BME280;23667;43.246;26.576;2022-09-21T04:11:49;99553.06;;;8.54;100.00
37824;BME280;23667;43.246;26.576;2022-09-21T04:14:16;99562.81;;;8.44;100.00
37824;BME280;23667;43.246;26.576;2022-09-21T04:16:42;99560.22;;;8.42;100.00
37824;BME280;23667;43.246;26.576;2022-09-21T04:19:08;99558.34;;;8.51;100.00
37824;BME280;23667;43.246;26.576;2022-09-21T04:21:33;99555.91;;;8.43;100.00
37824;BME280;23667;43.246;26.576;2022-09-21T04:23:58;99562.75;;;8.47;100.00
37824;BME280;23667;43.246;26.576;2022-09-21T04:26:31;99564.44;;;8.48;100.00
37824;BME280;23667;43.246;26.576;2022-09-21T04:28:58;99565.06;;;8.61;100.00
37824;BME280;23667;43.246;26.576;2022-09-21T04:31:25;99566.44;;;8.77;100.00
37824;BME280;23667;43.246;26.576;2022-09-21T04:33:52;99561.44;;;8.70;100.00
37824;BME280;23667;43.246;26.576;2022-09-21T04:36:19;99564.88;;;8.70;100.00
37824;BME280;23667;43.246;26.576;2022-09-21T04:38:45;99561.19;;;8.80;100.00
37824;BME280;23667;43.246;26.576;2022-09-21T04:41:12;99561.03;;;8.88;100.00
37824;BME280;23667;43.246;26.576;2022-09-21T04:43:40;99568.44;;;9.05;100.00
37824;BME280;23667;43.246;26.576;2022-09-21T04:46:08;99570.25;;;9.01;100.00
37824;BME280;23667;43.246;26.576;2022-09-21T04:48:34;99567.59;;;9.04;100.00
37824;BME280;23667;43.246;26.576;2022-09-21T04:51:00;99580.00;;;9.32;100.00
37824;BME280;23667;43.246;26.576;2022-09-21T04:53:26;99565.09;;;9.37;100.00
37824;BME280;23667;43.246;26.576;2022-09-21T04:55:51;99573.78;;;9.38;100.00
37824;BME280;23667;43.246;26.576;2022-09-21T04:58:17;99565.19;;;10.02;100.00
37824;BME280;23667;43.246;26.576;2022-09-21T05:00:42;99557.09;;;12.12;100.00
37824;BME280;23667;43.246;26.576;2022-09-21T05:03:08;99541.53;;;14.28;100.00
37824;BME280;23667;43.246;26.576;2022-09-21T05:05:33;99541.03;;;14.97;100.00
37824;BME280;23667;43.246;26.576;2022-09-21T05:07:59;99540.88;;;16.74;100.00
37824;BME280;23667;43.246;26.576;2022-09-21T05:10:25;99537.41;;;17.05;100.00
37824;BME280;23667;43.246;26.576;2022-09-21T05:12:50;99539.69;;;17.27;100.00
37824;BME280;23667;43.246;26.576;2022-09-21T05:15:17;99533.91;;;17.97;100.00
37824;BME280;23667;43.246;26.576;2022-09-21T05:17:43;99537.22;;;18.72;99.13
37824;BME280;23667;43.246;26.576;2022-09-21T05:20:09;99541.81;;;19.39;92.46
37824;BME280;23667;43.246;26.576;2022-09-21T05:22:35;99538.25;;;19.80;89.18
37824;BME280;23667;43.246;26.576;2022-09-21T05:25:01;99539.84;;;19.55;86.49
37824;BME280;23667;43.246;26.576;2022-09-21T05:27:26;99528.56;;;18.56;89.91
37824;BME280;23667;43.246;26.576;2022-09-21T05:29:52;99528.47;;;17.24;93.57
37824;BME280;23667;43.246;26.576;2022-09-21T05:40:16;99525.91;;;17.99;92.58
37824;BME280;23667;43.246;26.576;2022-09-21T05:42:42;99528.03;;;18.22;93.29
37824;BME280;23667;43.246;26.576;2022-09-21T05:45:12;99528.34;;;17.87;93.53
37824;BME280;23667;43.246;26.576;2022-09-21T05:47:51;99522.16;;;17.42;94.68
37824;BME280;23667;43.246;26.576;2022-09-21T05:58:18;99511.50;;;15.82;100.00
37824;BME280;23667;43.246;26.576;2022-09-21T06:01:18;99509.28;;;16.90;100.00
37824;BME280;23667;43.246;26.576;2022-09-21T06:03:46;99507.53;;;18.11;100.00
37824;BME280;23667;43.246;26.576;2022-09-21T06:06:14;99509.72;;;18.33;94.13
37824;BME280;23667;43.246;26.576;2022-09-21T06:08:39;99514.03;;;16.99;98.35
37824;BME280;23667;43.246;26.576;2022-09-21T06:11:05;99516.06;;;17.86;99.93
37824;BME280;23667;43.246;26.576;2022-09-21T06:13:30;99525.16;;;18.39;93.23
37824;BME280;23667;43.246;26.576;2022-09-21T06:15:56;99524.34;;;19.09;92.65
37824;BME280;23667;43.246;26.576;2022-09-21T06:18:22;99519.69;;;18.57;90.19
37824;BME280;23667;43.246;26.576;2022-09-21T06:20:48;99524.25;;;18.26;92.06
37824;BME280;23667;43.246;26.576;2022-09-21T06:23:13;99523.97;;;17.86;92.43
37824;BME280;23667;43.246;26.576;2022-09-21T06:25:39;99524.19;;;17.98;92.12
37824;BME280;23667;43.246;26.576;2022-09-21T06:28:10;99533.84;;;18.41;92.77
37824;BME280;23667;43.246;26.576;2022-09-21T06:30:37;99529.47;;;17.98;91.64
37824;BME280;23667;43.246;26.576;2022-09-21T06:33:05;99526.59;;;18.16;92.74
37824;BME280;23667;43.246;26.576;2022-09-21T06:35:33;99533.91;;;17.21;94.65
37824;BME280;23667;43.246;26.576;2022-09-21T06:38:05;99534.88;;;18.39;92.49
37824;BME280;23667;43.246;26.576;2022-09-21T06:40:32;99532.88;;;19.27;87.89
37824;BME280;23667;43.246;26.576;2022-09-21T06:42:58;99530.84;;;18.48;88.63
37824;BME280;23667;43.246;26.576;2022-09-21T06:45:25;99536.00;;;18.92;88.23
37824;BME280;23667;43.246;26.576;2022-09-21T06:47:51;99542.59;;;19.93;83.23
37824;BME280;23667;43.246;26.576;2022-09-21T06:50:16;99538.88;;;19.43;85.41
37824;BME280;23667;43.246;26.576;2022-09-21T06:52:42;99541.75;;;19.80;83.64
37824;BME280;23667;43.246;26.576;2022-09-21T06:55:08;99545.47;;;19.23;81.30
37824;BME280;23667;43.246;26.576;2022-09-21T06:57:35;99531.03;;;17.25;89.73
37824;BME280;23667;43.246;26.576;2022-09-21T07:00:02;99527.44;;;18.89;87.23
37824;BME280;23667;43.246;26.576;2022-09-21T07:02:28;99537.97;;;19.03;86.47
37824;BME280;23667;43.246;26.576;2022-09-21T07:04:54;99540.03;;;19.12;85.95
37824;BME280;23667;43.246;26.576;2022-09-21T07:07:19;99532.41;;;20.89;80.21
37824;BME280;23667;43.246;26.576;2022-09-21T07:09:45;99524.81;;;20.08;79.12
37824;BME280;23667;43.246;26.576;2022-09-21T07:12:10;99532.00;;;20.83;78.10
37824;BME280;23667;43.246;26.576;2022-09-21T07:14:36;99526.91;;;21.17;75.22
37824;BME280;23667;43.246;26.576;2022-09-21T07:17:01;99528.22;;;22.06;73.24
37824;BME280;23667;43.246;26.576;2022-09-21T07:19:27;99524.91;;;21.07;73.31
37824;BME280;23667;43.246;26.576;2022-09-21T07:21:53;99529.31;;;21.20;72.17
37824;BME280;23667;43.246;26.576;2022-09-21T07:24:19;99528.69;;;19.64;75.93
37824;BME280;23667;43.246;26.576;2022-09-21T07:26:44;99520.19;;;20.25;74.36
37824;BME280;23667;43.246;26.576;2022-09-21T07:29:10;99531.78;;;18.18;80.64
37824;BME280;23667;43.246;26.576;2022-09-21T07:31:36;99533.78;;;16.92;87.37
37824;BME280;23667;43.246;26.576;2022-09-21T07:34:02;99522.69;;;17.17;87.56
37824;BME280;23667;43.246;26.576;2022-09-21T07:36:27;99532.19;;;16.56;92.08
37824;BME280;23667;43.246;26.576;2022-09-21T07:38:53;99529.66;;;17.34;87.55
37824;BME280;23667;43.246;26.576;2022-09-21T07:41:18;99524.41;;;18.09;86.05
37824;BME280;23667;43.246;26.576;2022-09-21T07:43:44;99526.59;;;17.72;85.91
37824;BME280;23667;43.246;26.576;2022-09-21T07:46:11;99508.97;;;17.42;87.32
37824;BME280;23667;43.246;26.576;2022-09-21T07:48:37;99521.66;;;17.66;87.44
37824;BME280;23667;43.246;26.576;2022-09-21T07:51:09;99522.03;;;17.14;89.92
37824;BME280;23667;43.246;26.576;2022-09-21T07:53:36;99514.22;;;16.96;89.84
37824;BME280;23667;43.246;26.576;2022-09-21T07:56:10;99522.97;;;16.81;93.18
37824;BME280;23667;43.246;26.576;2022-09-21T07:58:36;99516.94;;;17.71;90.34
37824;BME280;23667;43.246;26.576;2022-09-21T08:01:21;99519.63;;;17.25;89.46
37824;BME280;23667;43.246;26.576;2022-09-21T08:03:51;99517.72;;;17.43;89.73
37824;BME280;23667;43.246;26.576;2022-09-21T08:06:17;99519.34;;;18.49;87.85
37824;BME280;23667;43.246;26.576;2022-09-21T08:08:44;99524.13;;;19.66;81.79
37824;BME280;23667;43.246;26.576;2022-09-21T08:11:16;99526.13;;;20.03;79.51
37824;BME280;23667;43.246;26.576;2022-09-21T08:13:43;99527.13;;;19.74;79.74
37824;BME280;23667;43.246;26.576;2022-09-21T08:16:08;99524.66;;;20.86;75.84
37824;BME280;23667;43.246;26.576;2022-09-21T08:18:38;99521.44;;;20.19;76.14
37824;BME280;23667;43.246;26.576;2022-09-21T08:21:04;99529.44;;;19.66;76.84
37824;BME280;23667;43.246;26.576;2022-09-21T08:23:30;99528.13;;;20.12;78.31
37824;BME280;23667;43.246;26.576;2022-09-21T08:26:00;99530.13;;;21.33;72.99
37824;BME280;23667;43.246;26.576;2022-09-21T08:28:29;99520.44;;;21.45;73.48
37824;BME280;23667;43.246;26.576;2022-09-21T08:31:04;99518.25;;;22.20;68.50
37824;BME280;23667;43.246;26.576;2022-09-21T08:33:30;99517.53;;;22.63;69.88
37824;BME280;23667;43.246;26.576;2022-09-21T08:35:58;99525.47;;;19.59;73.93
37824;BME280;23667;43.246;26.576;2022-09-21T08:38:24;99532.53;;;19.19;78.70
37824;BME280;23667;43.246;26.576;2022-09-21T08:40:51;99529.69;;;20.40;75.85
37824;BME280;23667;43.246;26.576;2022-09-21T08:45:45;99525.88;;;21.30;73.38
37824;BME280;23667;43.246;26.576;2022-09-21T08:48:22;99524.75;;;22.16;69.32
37824;BME280;23667;43.246;26.576;2022-09-21T08:50:52;99519.94;;;22.44;71.04
37824;BME280;23667;43.246;26.576;2022-09-21T08:55:57;99513.75;;;22.77;66.46
37824;BME280;23667;43.246;26.576;2022-09-21T08:58:25;99517.41;;;22.31;67.25
37824;BME280;23667;43.246;26.576;2022-09-21T09:11:58;99508.31;;;24.07;62.88
37824;BME280;23667;43.246;26.576;2022-09-21T09:14:52;99504.56;;;24.10;62.64
37824;BME280;23667;43.246;26.576;2022-09-21T09:17:26;99503.31;;;21.25;65.93
37824;BME280;23667;43.246;26.576;2022-09-21T09:22:32;99493.72;;;22.17;67.59
37824;BME280;23667;43.246;26.576;2022-09-21T09:25:22;99494.50;;;20.63;68.96
37824;BME280;23667;43.246;26.576;2022-09-21T09:27:58;99486.38;;;20.54;71.30
37824;BME280;23667;43.246;26.576;2022-09-21T09:30:29;99471.88;;;20.34;73.96
37824;BME280;23667;43.246;26.576;2022-09-21T09:35:30;99483.22;;;20.10;76.18
37824;BME280;23667;43.246;26.576;2022-09-21T09:38:11;99480.44;;;20.63;71.56
37824;BME280;23667;43.246;26.576;2022-09-21T09:40:52;99476.97;;;20.11;75.69
37824;BME280;23667;43.246;26.576;2022-09-21T09:51:19;99467.13;;;22.84;62.27
37824;BME280;23667;43.246;26.576;2022-09-21T09:53:44;99468.16;;;21.10;65.45
37824;BME280;23667;43.246;26.576;2022-09-21T09:56:11;99461.31;;;19.83;68.01
37824;BME280;23667;43.246;26.576;2022-09-21T09:59:02;99466.84;;;18.85;72.85
37824;BME280;23667;43.246;26.576;2022-09-21T10:01:36;99463.84;;;18.77;76.25
37824;BME280;23667;43.246;26.576;2022-09-21T10:04:10;99457.81;;;17.75;77.30
37824;BME280;23667;43.246;26.576;2022-09-21T10:06:37;99463.13;;;17.89;79.19
37824;BME280;23667;43.246;26.576;2022-09-21T10:11:52;99464.75;;;18.06;81.28
37824;BME280;23667;43.246;26.576;2022-09-21T10:14:23;99456.34;;;18.42;81.13
37824;BME280;23667;43.246;26.576;2022-09-21T10:16:50;99459.34;;;18.36;79.39
37824;BME280;23667;43.246;26.576;2022-09-21T10:19:20;99449.84;;;17.46;80.59
37824;BME280;23667;43.246;26.576;2022-09-21T10:21:50;99447.41;;;17.13;82.11
37824;BME280;23667;43.246;26.576;2022-09-21T10:24:28;99442.25;;;17.26;81.69
37824;BME280;23667;43.246;26.576;2022-09-21T10:27:04;99450.63;;;17.02;86.36
37824;BME280;23667;43.246;26.576;2022-09-21T10:29:32;99438.84;;;17.24;87.01
37824;BME280;23667;43.246;26.576;2022-09-21T10:37:39;99435.53;;;17.81;78.50
37824;BME280;23667;43.246;26.576;2022-09-21T10:42:51;99443.06;;;18.30;78.81
37824;BME280;23667;43.246;26.576;2022-09-21T10:45:24;99439.56;;;18.44;78.79
37824;BME280;23667;43.246;26.576;2022-09-21T10:47:55;99426.53;;;18.55;80.07
37824;BME280;23667;43.246;26.576;2022-09-21T10:50:33;99434.59;;;18.66;78.23
37824;BME280;23667;43.246;26.576;2022-09-21T10:53:09;99426.78;;;18.79;74.77
37824;BME280;23667;43.246;26.576;2022-09-21T10:55:43;99421.94;;;18.30;73.29
37824;BME280;23667;43.246;26.576;2022-09-21T10:58:11;99418.22;;;18.61;73.55
37824;BME280;23667;43.246;26.576;2022-09-21T11:05:56;99414.88;;;19.39;73.47
37824;BME280;23667;43.246;26.576;2022-09-21T11:08:45;99414.34;;;20.23;71.73
37824;BME280;23667;43.246;26.576;2022-09-21T11:16:57;99397.69;;;21.19;65.80
37824;BME280;23667;43.246;26.576;2022-09-21T11:19:33;99402.09;;;19.96;69.17
37824;BME280;23667;43.246;26.576;2022-09-21T11:22:21;99400.56;;;19.94;69.63
37824;BME280;23667;43.246;26.576;2022-09-21T11:27:34;99406.69;;;18.76;72.62
37824;BME280;23667;43.246;26.576;2022-09-21T11:30:03;99403.16;;;18.90;71.72
37824;BME280;23667;43.246;26.576;2022-09-21T11:38:17;99398.13;;;18.17;70.12
37824;BME280;23667;43.246;26.576;2022-09-21T12:04:41;99382.72;;;18.65;68.26
37824;BME280;23667;43.246;26.576;2022-09-21T12:12:43;99385.19;;;18.27;69.37
37824;BME280;23667;43.246;26.576;2022-09-21T12:15:31;99390.78;;;18.22;68.56
37824;BME280;23667;43.246;26.576;2022-09-21T12:18:09;99386.78;;;18.29;69.92
37824;BME280;23667;43.246;26.576;2022-09-21T12:23:22;99383.81;;;17.78;72.34
37824;BME280;23667;43.246;26.576;2022-09-21T12:25:53;99384.72;;;17.48;73.13
37824;BME280;23667;43.246;26.576;2022-09-21T12:31:04;99387.72;;;17.12;74.03
37824;BME280;23667;43.246;26.576;2022-09-21T12:33:36;99390.16;;;16.85;75.13
37824;BME280;23667;43.246;26.576;2022-09-21T12:39:19;99407.75;;;16.37;77.76
37824;BME280;23667;43.246;26.576;2022-09-21T12:41:55;99406.47;;;16.44;77.89
37824;BME280;23667;43.246;26.576;2022-09-21T12:44:23;99408.03;;;16.48;80.90
37824;BME280;23667;43.246;26.576;2022-09-21T12:47:05;99411.16;;;16.39;87.11
37824;BME280;23667;43.246;26.576;2022-09-21T12:49:40;99418.19;;;16.23;91.68
37824;BME280;23667;43.246;26.576;2022-09-21T12:52:07;99415.47;;;16.40;93.20
37824;BME280;23667;43.246;26.576;2022-09-21T12:55:06;99413.19;;;16.50;93.08
37824;BME280;23667;43.246;26.576;2022-09-21T13:00:19;99419.19;;;16.04;94.74
37824;BME280;23667;43.246;26.576;2022-09-21T13:02:54;99417.50;;;16.03;96.98
37824;BME280;23667;43.246;26.576;2022-09-21T13:05:42;99422.31;;;16.11;91.17
37824;BME280;23667;43.246;26.576;2022-09-21T13:08:13;99429.41;;;16.42;90.90
37824;BME280;23667;43.246;26.576;2022-09-21T13:15:54;99425.00;;;15.93;100.00
37824;BME280;23667;43.246;26.576;2022-09-21T13:18:35;99429.06;;;15.83;100.00
37824;BME280;23667;43.246;26.576;2022-09-21T13:21:14;99426.06;;;15.56;100.00
37824;BME280;23667;43.246;26.576;2022-09-21T13:23:40;99424.13;;;15.42;100.00
37824;BME280;23667;43.246;26.576;2022-09-21T13:26:09;99418.50;;;15.15;100.00
37824;BME280;23667;43.246;26.576;2022-09-21T13:28:59;99418.72;;;15.28;100.00
37824;BME280;23667;43.246;26.576;2022-09-21T13:32:01;99416.41;;;15.22;100.00
37824;BME280;23667;43.246;26.576;2022-09-21T13:34:37;99409.75;;;15.15;100.00
37824;BME280;23667;43.246;26.576;2022-09-21T13:47:41;99413.81;;;14.86;100.00
37824;BME280;23667;43.246;26.576;2022-09-21T13:50:30;99402.09;;;14.93;100.00
37824;BME280;23667;43.246;26.576;2022-09-21T13:53:00;99404.72;;;15.10;100.00
37824;BME280;23667;43.246;26.576;2022-09-21T13:55:38;99411.09;;;15.23;100.00
37824;BME280;23667;43.246;26.576;2022-09-21T13:58:16;99408.81;;;15.51;100.00
37824;BME280;23667;43.246;26.576;2022-09-21T14:00:59;99412.84;;;15.75;100.00
37824;BME280;23667;43.246;26.576;2022-09-21T14:03:41;99438.41;;;15.37;100.00
37824;BME280;23667;43.246;26.576;2022-09-21T14:06:13;99433.63;;;14.17;100.00
37824;BME280;23667;43.246;26.576;2022-09-21T14:11:41;99443.97;;;13.19;100.00
37824;BME280;23667;43.246;26.576;2022-09-21T14:24:47;99446.25;;;13.70;100.00
37824;BME280;23667;43.246;26.576;2022-09-21T14:27:47;99455.63;;;13.55;100.00
37824;BME280;23667;43.246;26.576;2022-09-21T14:30:22;99452.97;;;13.34;100.00
37824;BME280;23667;43.246;26.576;2022-09-21T14:33:06;99467.09;;;13.30;100.00
37824;BME280;23667;43.246;26.576;2022-09-21T14:35:43;99463.84;;;13.25;100.00
37824;BME280;23667;43.246;26.576;2022-09-21T14:38:33;99469.16;;;13.22;100.00
37824;BME280;23667;43.246;26.576;2022-09-21T14:41:04;99470.88;;;13.01;100.00
37824;BME280;23667;43.246;26.576;2022-09-21T14:43:35;99466.13;;;12.89;100.00
37824;BME280;23667;43.246;26.576;2022-09-21T15:02:41;99477.09;;;12.77;100.00
37824;BME280;23667;43.246;26.576;2022-09-21T15:05:18;99473.72;;;12.95;100.00
37824;BME280;23667;43.246;26.576;2022-09-21T15:11:35;99463.94;;;13.64;100.00
37824;BME280;23667;43.246;26.576;2022-09-21T15:16:39;99456.25;;;13.80;100.00
37824;BME280;23667;43.246;26.576;2022-09-21T15:19:24;99439.91;;;13.94;100.00
37824;BME280;23667;43.246;26.576;2022-09-21T15:24:35;99448.91;;;13.68;100.00
37824;BME280;23667;43.246;26.576;2022-09-21T15:27:04;99445.13;;;13.55;100.00
37824;BME280;23667;43.246;26.576;2022-09-21T15:29:31;99444.91;;;12.96;100.00
37824;BME280;23667;43.246;26.576;2022-09-21T15:31:59;99448.31;;;12.98;100.00
37824;BME280;23667;43.246;26.576;2022-09-21T15:34:24;99451.34;;;12.88;100.00
37824;BME280;23667;43.246;26.576;2022-09-21T15:36:50;99448.63;;;12.69;100.00
37824;BME280;23667;43.246;26.576;2022-09-21T15:39:34;99454.97;;;12.40;100.00
37824;BME280;23667;43.246;26.576;2022-09-21T15:44:32;99448.13;;;12.12;100.00
37824;BME280;23667;43.246;26.576;2022-09-21T15:46:59;99459.50;;;11.88;100.00
37824;BME280;23667;43.246;26.576;2022-09-21T15:49:27;99468.75;;;11.71;100.00
37824;BME280;23667;43.246;26.576;2022-09-21T15:55:16;99492.78;;;11.29;100.00
37824;BME280;23667;43.246;26.576;2022-09-21T15:57:50;99498.69;;;11.09;100.00
37824;BME280;23667;43.246;26.576;2022-09-21T16:00:18;99503.22;;;11.03;100.00
37824;BME280;23667;43.246;26.576;2022-09-21T16:05:21;99501.56;;;11.00;100.00
37824;BME280;23667;43.246;26.576;2022-09-21T16:07:47;99510.34;;;10.98;100.00
37824;BME280;23667;43.246;26.576;2022-09-21T16:16:00;99510.59;;;10.90;100.00
37824;BME280;23667;43.246;26.576;2022-09-21T16:18:45;99520.44;;;10.80;100.00
37824;BME280;23667;43.246;26.576;2022-09-21T16:21:27;99516.56;;;10.65;100.00
37824;BME280;23667;43.246;26.576;2022-09-21T16:24:07;99514.22;;;10.56;100.00
37824;BME280;23667;43.246;26.576;2022-09-21T16:26:36;99517.69;;;10.57;100.00
37824;BME280;23667;43.246;26.576;2022-09-21T16:29:18;99512.66;;;10.51;100.00
37824;BME280;23667;43.246;26.576;2022-09-21T16:31:48;99512.22;;;10.64;100.00
37824;BME280;23667;43.246;26.576;2022-09-21T16:34:30;99511.94;;;10.74;100.00
37824;BME280;23667;43.246;26.576;2022-09-21T16:37:02;99509.50;;;10.67;100.00
37824;BME280;23667;43.246;26.576;2022-09-21T16:39:41;99507.69;;;10.71;100.00
37824;BME280;23667;43.246;26.576;2022-09-21T16:42:08;99513.78;;;10.70;100.00